createdAt,value
2019-05-10T00:02:17.637Z,71.94
2019-05-10T00:05:04.801Z,71.88
2019-05-10T00:07:52.057Z,72.15
2019-05-10T00:10:20.386Z,72.25
2019-05-10T00:13:14.184Z,72.62
2019-05-10T00:15:43.660Z,72.29
2019-05-10T00:18:12.920Z,72.39
2019-05-10T00:20:42.204Z,72.39
2019-05-10T00:23:11.496Z,72.52
2019-05-10T00:25:40.775Z,72.41
2019-05-10T00:28:10.059Z,72.28
2019-05-10T00:30:39.339Z,72.20
2019-05-10T00:33:09.736Z,72.35
2019-05-10T00:35:39.004Z,72.20
2019-05-10T00:38:08.291Z,72.14
2019-05-10T00:40:37.569Z,72.00
2019-05-10T00:43:06.838Z,72.00
2019-05-10T00:45:36.183Z,71.85
2019-05-10T00:48:05.473Z,71.73
2019-05-10T00:50:36.963Z,71.70
2019-05-10T00:53:06.292Z,71.72
2019-05-10T00:55:35.580Z,71.76
2019-05-10T00:58:04.938Z,71.49
2019-05-10T01:00:34.299Z,71.79
2019-05-10T01:03:03.583Z,71.61
2019-05-10T01:05:33.963Z,71.70
2019-05-10T01:08:03.330Z,71.82
2019-05-10T01:10:33.018Z,71.71
2019-05-10T01:13:02.305Z,71.62
2019-05-10T01:15:31.574Z,71.66
2019-05-10T01:18:00.847Z,71.92
2019-05-10T01:20:30.139Z,72.08
2019-05-10T01:22:59.402Z,72.16
2019-05-10T01:25:35.153Z,72.26
2019-05-10T01:27:59.724Z,72.57
2019-05-10T01:30:29.033Z,72.72
2019-05-10T01:32:58.368Z,72.80
2019-05-10T01:35:27.676Z,72.82
2019-05-10T01:37:56.978Z,72.74
2019-05-10T01:40:26.275Z,72.93
2019-05-10T01:42:55.538Z,72.94
2019-05-10T01:45:24.795Z,72.86
2019-05-10T01:47:54.926Z,72.96
2019-05-10T01:50:24.236Z,73.16
2019-05-10T01:52:53.556Z,73.50
2019-05-10T01:55:22.852Z,73.28
2019-05-10T01:57:52.111Z,73.36
2019-05-10T02:00:21.819Z,73.55
2019-05-10T02:02:51.103Z,73.67
2019-05-10T02:05:20.398Z,73.96
2019-05-10T02:07:49.683Z,73.53
2019-05-10T02:10:19.156Z,74.11
2019-05-10T02:12:48.405Z,74.53
2019-05-10T02:15:18.199Z,74.71
2019-05-10T02:17:47.480Z,74.93
2019-05-10T02:20:16.848Z,75.24
2019-05-10T02:22:46.178Z,75.63
2019-05-10T02:25:15.444Z,76.16
2019-05-10T02:27:44.731Z,76.02
2019-05-10T02:30:14.545Z,76.39
2019-05-10T02:32:43.808Z,76.27
2019-05-10T02:35:13.090Z,76.54
2019-05-10T02:37:42.400Z,76.91
2019-05-10T02:40:12.205Z,76.85
2019-05-10T02:42:41.641Z,76.92
2019-05-10T02:45:11.336Z,77.14
2019-05-10T02:47:40.607Z,76.58
2019-05-10T02:50:10.386Z,76.46
2019-05-10T02:52:39.724Z,76.82
2019-05-10T02:55:09.630Z,76.50
2019-05-10T02:57:38.939Z,76.65
2019-05-10T03:00:08.744Z,76.75
2019-05-10T03:02:38.922Z,76.66
2019-05-10T03:05:08.690Z,76.27
2019-05-10T03:07:39.389Z,76.41
2019-05-10T03:10:11.150Z,76.45
2019-05-10T03:12:42.063Z,76.53
2019-05-10T03:15:12.507Z,76.66
2019-05-10T03:17:42.424Z,76.71
2019-05-10T03:20:13.296Z,76.80
2019-05-10T03:22:44.043Z,76.50
2019-05-10T03:25:14.601Z,76.67
2019-05-10T03:27:44.318Z,77.15
2019-05-10T03:30:13.900Z,77.07
2019-05-10T03:32:43.244Z,76.87
2019-05-10T03:35:12.603Z,76.90
2019-05-10T03:37:41.941Z,76.13
2019-05-10T03:40:12.062Z,75.99
2019-05-10T03:42:42.747Z,76.12
2019-05-10T03:45:12.430Z,75.69
2019-05-10T03:47:41.702Z,75.98
2019-05-10T03:50:12.668Z,76.93
2019-05-10T03:52:41.942Z,75.85
2019-05-10T03:55:11.442Z,76.00
2019-05-10T03:57:42.533Z,75.72
2019-05-10T04:00:13.390Z,75.60
2019-05-10T04:02:42.627Z,75.31
2019-05-10T04:05:12.354Z,76.19
2019-05-10T04:07:41.709Z,75.82
2019-05-10T04:10:11.578Z,75.39
2019-05-10T04:12:40.849Z,75.21
2019-05-10T04:15:25.429Z,75.04
2019-05-10T04:17:54.706Z,75.28
2019-05-10T04:20:24.004Z,74.91
2019-05-10T04:22:53.286Z,75.21
2019-05-10T04:25:22.574Z,74.85
2019-05-10T04:27:51.862Z,74.80
2019-05-10T04:30:21.231Z,74.68
2019-05-10T04:32:50.539Z,74.71
2019-05-10T04:35:19.839Z,74.60
2019-05-10T04:37:49.205Z,74.71
2019-05-10T04:40:18.482Z,74.34
2019-05-10T04:42:49.621Z,74.62
2019-05-10T04:45:18.988Z,74.97
2019-05-10T04:47:48.255Z,73.91
2019-05-10T04:50:17.525Z,74.03
2019-05-10T04:52:46.823Z,73.97
2019-05-10T04:55:16.283Z,74.00
2019-05-10T04:57:50.320Z,73.91
2019-05-10T05:00:18.697Z,73.67
2019-05-10T05:02:48.443Z,73.33
2019-05-10T05:05:18.064Z,73.41
2019-05-10T05:07:47.547Z,73.25
2019-05-10T05:10:16.826Z,73.36
2019-05-10T05:12:46.503Z,73.42
2019-05-10T05:15:16.419Z,73.22
2019-05-10T05:17:45.726Z,73.43
2019-05-10T05:20:16.562Z,73.14
2019-05-10T05:22:46.069Z,72.91
2019-05-10T05:25:15.883Z,72.23
2019-05-10T05:27:45.779Z,72.45
2019-05-10T05:30:15.497Z,72.46
2019-05-10T05:32:45.809Z,72.29
2019-05-10T05:35:15.683Z,72.39
2019-05-10T05:37:56.346Z,71.87
2019-05-10T05:40:25.593Z,71.76
2019-05-10T05:42:54.867Z,71.74
2019-05-10T05:45:28.167Z,71.92
2019-05-10T05:47:55.215Z,72.15
2019-05-10T05:50:24.548Z,71.10
2019-05-10T05:52:55.711Z,71.42
2019-05-10T05:55:30.746Z,71.04
2019-05-10T05:57:59.124Z,70.82
2019-05-10T06:00:28.130Z,70.93
2019-05-10T06:02:57.454Z,71.15
2019-05-10T06:05:34.311Z,70.77
2019-05-10T06:07:58.774Z,70.78
2019-05-10T06:10:28.076Z,71.22
2019-05-10T06:12:57.412Z,70.52
2019-05-10T06:15:29.067Z,70.36
2019-05-10T06:18:02.874Z,70.59
2019-05-10T06:20:28.742Z,70.82
2019-05-10T06:23:06.215Z,71.25
2019-05-10T06:25:39.659Z,69.98
2019-05-10T06:28:00.068Z,69.29
2019-05-10T06:30:29.396Z,68.88
2019-05-10T06:33:00.304Z,68.47
2019-05-10T06:35:29.672Z,67.11
2019-05-10T06:37:58.949Z,66.42
2019-05-10T06:40:34.781Z,66.25
2019-05-10T06:43:00.201Z,66.44
2019-05-10T06:45:29.507Z,65.15
2019-05-10T06:47:59.811Z,64.87
2019-05-10T06:50:31.897Z,64.69
2019-05-10T06:53:07.736Z,63.49
2019-05-10T06:55:32.419Z,62.84
2019-05-10T06:58:01.735Z,61.58
2019-05-10T07:00:31.044Z,61.38
2019-05-10T07:03:00.343Z,61.34
2019-05-10T07:05:29.584Z,58.58
2019-05-10T07:08:13.470Z,52.07
2019-05-10T07:10:33.756Z,52.91
2019-05-10T07:13:03.680Z,55.81
2019-05-10T07:15:35.968Z,52.26
2019-05-10T07:18:03.059Z,52.16
2019-05-10T07:20:32.319Z,48.25
2019-05-10T07:23:06.290Z,46.59
2019-05-10T07:25:37.777Z,44.73
2019-05-10T07:28:03.893Z,40.27
2019-05-10T07:30:35.516Z,40.27
2019-05-10T07:33:05.299Z,36.84
2019-05-10T07:35:37.016Z,37.16
2019-05-10T07:38:05.593Z,40.56
2019-05-10T07:40:39.830Z,40.36
2019-05-10T07:43:08.648Z,42.20
2019-05-10T07:45:37.964Z,40.43
2019-05-10T07:48:08.149Z,34.45
2019-05-10T07:50:42.468Z,37.30
2019-05-10T07:53:09.270Z,41.52
2019-05-10T07:55:38.571Z,47.11
2019-05-10T07:58:07.858Z,47.11
2019-05-10T08:00:38.241Z,48.13
2019-05-10T08:03:16.049Z,48.61
2019-05-10T08:05:39.495Z,47.76
2019-05-10T08:08:09.553Z,47.46
2019-05-10T08:10:39.545Z,47.38
2019-05-10T08:13:08.935Z,49.05
2019-05-10T08:15:38.570Z,49.20
2019-05-10T08:18:09.794Z,48.85
2019-05-10T08:20:49.327Z,48.71
2019-05-10T08:23:10.015Z,48.89
2019-05-10T08:25:43.936Z,48.84
2019-05-10T08:28:12.544Z,48.21
2019-05-10T08:30:51.930Z,48.11
2019-05-10T08:33:14.882Z,48.17
2019-05-10T08:35:46.570Z,48.37
2019-05-10T08:38:16.600Z,46.62
2019-05-10T08:40:45.878Z,41.30
2019-05-10T08:43:16.847Z,36.46
2019-05-10T08:45:49.549Z,34.05
2019-05-10T08:48:17.242Z,33.85
2019-05-10T08:50:56.385Z,31.65
2019-05-10T08:53:17.487Z,30.14
2019-05-10T08:55:46.824Z,33.10
2019-05-10T09:01:16.219Z,36.31
2019-05-10T09:03:34.494Z,34.75
2019-05-10T09:06:11.692Z,34.49
2019-05-10T09:08:34.923Z,37.24
2019-05-10T09:11:06.939Z,34.91
2019-05-10T09:13:40.891Z,31.58
2019-05-10T09:16:06.278Z,30.92
2019-05-10T09:18:38.157Z,30.16
2019-05-10T09:21:09.169Z,29.70
2019-05-10T09:23:37.719Z,29.52
2019-05-10T09:26:10.268Z,30.53
2019-05-10T09:28:38.105Z,30.00
2019-05-10T09:31:18.806Z,31.22
2019-05-10T09:33:43.366Z,30.49
2019-05-10T09:36:09.462Z,31.21
2019-05-10T09:38:40.394Z,31.78
2019-05-10T09:41:11.930Z,30.17
2019-05-10T09:43:57.549Z,32.16
2019-05-10T09:46:26.423Z,30.76
2019-05-10T09:49:06.060Z,29.56
2019-05-10T09:51:30.169Z,29.38
2019-05-10T09:54:00.410Z,29.71
2019-05-10T09:56:32.956Z,28.75
2019-05-10T09:58:59.955Z,34.23
2019-05-10T10:01:30.331Z,34.13
2019-05-10T10:04:01.954Z,36.27
2019-05-10T10:06:30.637Z,36.35
2019-05-10T10:09:00.947Z,36.36
2019-05-10T10:11:30.411Z,36.87
2019-05-10T10:14:02.204Z,37.03
2019-05-10T10:16:30.739Z,36.71
2019-05-10T10:19:00.040Z,35.83
2019-05-10T10:21:35.033Z,34.85
2019-05-10T10:24:00.642Z,36.07
2019-05-10T10:26:29.936Z,36.48
2019-05-10T10:29:00.226Z,36.30
2019-05-10T10:31:33.341Z,35.70
2019-05-10T10:34:03.116Z,35.59
2019-05-10T10:36:31.615Z,36.64
2019-05-10T10:39:00.870Z,34.51
2019-05-10T10:41:31.866Z,33.97
2019-05-10T10:44:01.178Z,34.95
2019-05-10T10:46:30.485Z,34.64
2019-05-10T10:48:59.788Z,34.64
2019-05-10T10:51:32.048Z,35.48
2019-05-10T10:54:00.071Z,37.07
2019-05-10T10:56:30.699Z,36.73
2019-05-10T10:59:00.099Z,37.74
2019-05-10T11:01:45.715Z,38.29
2019-05-10T11:04:03.734Z,39.35
2019-05-10T11:06:31.477Z,39.83
2019-05-10T11:09:01.771Z,39.29
2019-05-10T11:11:39.117Z,38.46
2019-05-10T11:14:07.302Z,37.33
2019-05-10T11:16:33.207Z,37.13
2019-05-10T11:19:03.769Z,37.09
2019-05-10T11:21:33.568Z,36.15
2019-05-10T11:24:02.849Z,35.96
2019-05-10T11:26:36.819Z,35.50
2019-05-10T11:29:03.198Z,35.50
2019-05-10T11:31:32.452Z,35.36
2019-05-10T11:34:01.735Z,34.96
2019-05-10T11:36:31.297Z,34.66
2019-05-10T11:39:01.624Z,36.09
2019-05-10T11:41:31.620Z,36.09
2019-05-10T11:44:07.104Z,35.40
2019-05-10T11:46:35.254Z,35.98
2019-05-10T11:49:04.635Z,35.58
2019-05-10T11:51:33.966Z,35.66
2019-05-10T11:54:03.248Z,36.73
2019-05-10T11:56:32.557Z,38.41
2019-05-10T11:59:02.699Z,36.68
2019-05-10T12:01:32.169Z,36.97
2019-05-10T12:06:32.462Z,36.33
2019-05-10T12:09:04.824Z,37.08
2019-05-10T12:11:40.798Z,37.79
2019-05-10T12:14:05.221Z,36.16
2019-05-10T12:16:34.694Z,35.69
2019-05-10T12:21:35.091Z,36.05
2019-05-10T12:24:26.220Z,35.00
2019-05-10T12:26:18.917Z,36.01
2019-05-10T12:26:31.280Z,36.05
2019-05-10T12:29:11.974Z,34.86
2019-05-10T12:31:37.468Z,36.60
2019-05-10T12:34:10.165Z,37.63
2019-05-10T12:36:37.782Z,37.34
2019-05-10T12:39:08.233Z,36.46
2019-05-10T12:41:39.947Z,36.28
2019-05-10T12:44:11.205Z,36.78
2019-05-10T12:46:42.436Z,36.39
2019-05-10T12:49:12.107Z,35.35
2019-05-10T12:51:43.325Z,35.35
2019-05-10T12:54:12.709Z,35.81
2019-05-10T12:56:44.191Z,35.78
2019-05-10T12:59:13.055Z,35.78
2019-05-10T13:01:42.362Z,35.77
2019-05-10T13:04:14.673Z,36.75
2019-05-10T13:06:42.669Z,37.37
2019-05-10T13:09:12.033Z,37.82
2019-05-10T13:11:42.356Z,38.54
2019-05-10T13:14:11.651Z,38.67
2019-05-10T13:16:40.917Z,38.51
2019-05-10T13:19:14.133Z,38.69
2019-05-10T13:21:41.253Z,39.01
2019-05-10T13:24:10.581Z,39.98
2019-05-10T13:26:39.850Z,41.05
2019-05-10T13:29:10.541Z,42.00
2019-05-10T13:31:42.991Z,42.42
2019-05-10T13:34:11.450Z,42.87
2019-05-10T13:36:40.747Z,42.63
2019-05-10T13:39:10.075Z,42.85
2019-05-10T13:41:39.382Z,42.74
2019-05-10T13:44:08.675Z,42.84
2019-05-10T13:46:39.208Z,42.99
2019-05-10T13:49:21.587Z,43.45
2019-05-10T13:51:50.806Z,42.33
2019-05-10T13:54:20.111Z,42.26
2019-05-10T13:56:54.722Z,40.63
2019-05-10T13:59:23.035Z,40.37
2019-05-10T14:01:52.312Z,39.88
2019-05-10T14:04:23.281Z,39.82
2019-05-10T14:06:53.903Z,39.89
2019-05-10T14:09:23.217Z,39.54
2019-05-10T14:11:52.502Z,39.53
2019-05-10T14:14:26.070Z,40.67
2019-05-10T14:16:52.904Z,40.92
2019-05-10T14:19:25.609Z,40.76
2019-05-10T14:21:56.524Z,40.63
2019-05-10T14:24:25.829Z,40.40
2019-05-10T14:26:57.083Z,39.42
2019-05-10T14:29:34.788Z,39.39
2019-05-10T14:31:57.234Z,40.23
2019-05-10T14:34:26.535Z,39.85
2019-05-10T14:36:55.819Z,40.15
2019-05-10T14:39:26.191Z,39.34
2019-05-10T14:41:55.501Z,40.35
2019-05-10T14:44:25.089Z,40.48
2019-05-10T14:46:54.503Z,38.95
2019-05-10T14:49:23.869Z,39.04
2019-05-10T14:51:58.909Z,39.12
2019-05-10T14:54:24.129Z,38.54
2019-05-10T14:56:54.197Z,39.86
2019-05-10T14:59:23.599Z,39.30
2019-05-10T15:01:52.944Z,38.34
2019-05-10T15:04:43.775Z,38.41
2019-05-10T15:06:53.271Z,39.03
2019-05-10T15:09:24.201Z,39.88
2019-05-10T15:11:53.759Z,39.97
2019-05-10T15:14:23.090Z,39.46
2019-05-10T15:16:52.394Z,39.98
2019-05-10T15:19:25.705Z,39.79
2019-05-10T15:21:52.728Z,39.72
2019-05-10T15:24:22.002Z,40.23
2019-05-10T15:26:51.323Z,39.07
2019-05-10T15:29:22.399Z,38.70
2019-05-10T15:31:51.832Z,38.71
2019-05-10T15:34:23.120Z,38.86
2019-05-10T15:36:54.413Z,39.09
2019-05-10T15:39:28.617Z,39.55
2019-05-10T15:42:00.568Z,40.33
2019-05-10T15:44:31.519Z,40.26
2019-05-10T15:47:02.807Z,40.54
2019-05-10T15:49:32.803Z,39.75
2019-05-10T15:52:17.314Z,40.70
2019-05-10T15:54:44.772Z,41.03
2019-05-10T15:57:14.558Z,41.02
2019-05-10T15:59:44.931Z,41.29
2019-05-10T16:02:14.317Z,41.55
2019-05-10T16:04:43.598Z,41.91
2019-05-10T16:07:14.621Z,42.14
2019-05-10T16:09:44.519Z,42.50
2019-05-10T16:12:37.683Z,43.49
2019-05-10T16:15:06.626Z,43.84
2019-05-10T16:17:35.923Z,43.98
2019-05-10T16:20:05.939Z,43.59
2019-05-10T16:22:35.249Z,43.98
2019-05-10T16:25:04.858Z,44.29
2019-05-10T16:27:39.720Z,43.89
2019-05-10T16:30:06.118Z,43.38
2019-05-10T16:32:36.348Z,43.20
2019-05-10T16:35:12.370Z,41.91
2019-05-10T16:37:36.984Z,42.99
2019-05-10T16:40:07.438Z,44.14
2019-05-10T16:42:36.719Z,44.48
2019-05-10T16:45:06.861Z,44.92
2019-05-10T16:47:36.162Z,45.28
2019-05-10T16:50:05.946Z,45.37
2019-05-10T16:52:36.065Z,45.92
2019-05-10T16:55:09.283Z,46.54
2019-05-10T16:57:39.350Z,46.55
2019-05-10T17:00:10.682Z,46.23
2019-05-10T17:02:41.953Z,46.14
2019-05-10T17:05:15.365Z,46.37
2019-05-10T17:07:45.607Z,46.65
2019-05-10T17:10:15.090Z,46.88
2019-05-10T17:12:44.423Z,47.01
2019-05-10T17:15:13.995Z,47.30
2019-05-10T17:17:44.985Z,46.64
2019-05-10T17:20:16.002Z,46.33
2019-05-10T17:22:45.354Z,46.42
2019-05-10T17:25:14.614Z,46.51
2019-05-10T17:27:43.908Z,46.07
2019-05-10T17:30:13.645Z,46.13
2019-05-10T17:32:42.895Z,46.15
2019-05-10T17:35:12.735Z,45.31
2019-05-10T17:37:41.998Z,45.91
2019-05-10T17:40:12.428Z,45.97
2019-05-10T17:42:43.249Z,46.37
2019-05-10T17:45:12.712Z,46.75
2019-05-10T17:47:41.999Z,45.93
2019-05-10T17:50:11.713Z,45.65
2019-05-10T17:52:42.007Z,45.89
2019-05-10T17:55:25.301Z,45.87
2019-05-10T17:57:54.793Z,46.92
2019-05-10T18:00:22.289Z,46.60
2019-05-10T18:02:53.343Z,45.62
2019-05-10T18:05:23.645Z,45.90
2019-05-10T18:07:52.946Z,46.48
2019-05-10T18:10:22.251Z,45.94
2019-05-10T18:12:51.531Z,46.20
2019-05-10T18:15:20.892Z,46.20
2019-05-10T18:17:50.177Z,46.24
2019-05-10T18:20:23.492Z,46.28
2019-05-10T18:22:52.806Z,46.61
2019-05-10T18:25:22.379Z,46.66
2019-05-10T18:27:51.728Z,47.18
2019-05-10T18:30:21.267Z,47.44
2019-05-10T18:32:50.533Z,47.12
2019-05-10T18:35:19.815Z,47.74
2019-05-10T18:37:53.696Z,48.08
2019-05-10T18:40:25.422Z,48.13
2019-05-10T18:42:51.071Z,48.41
2019-05-10T18:45:23.240Z,48.23
2019-05-10T18:47:51.347Z,48.56
2019-05-10T18:50:20.644Z,48.23
2019-05-10T18:52:51.151Z,48.24
2019-05-10T18:55:20.430Z,48.82
2019-05-10T18:57:50.661Z,48.67
2019-05-10T19:00:23.243Z,49.26
2019-05-10T19:02:55.238Z,49.58
2019-05-10T19:05:25.146Z,48.99
2019-05-10T19:08:03.102Z,49.55
2019-05-10T19:10:25.028Z,50.08
2019-05-10T19:13:01.248Z,50.32
2019-05-10T19:15:25.321Z,49.76
2019-05-10T19:17:54.638Z,50.42
2019-05-10T19:20:23.959Z,50.22
2019-05-10T19:22:53.269Z,50.75
2019-05-10T19:25:22.600Z,50.71
2019-05-10T19:27:51.879Z,51.46
2019-05-10T19:30:22.619Z,51.51
2019-05-10T19:32:56.334Z,50.89
2019-05-10T19:35:22.925Z,50.60
2019-05-10T19:37:53.151Z,50.72
2019-05-10T19:40:22.827Z,51.84
2019-05-10T19:42:52.175Z,52.28
2019-05-10T19:45:21.479Z,51.50
2019-05-10T19:47:55.795Z,50.71
2019-05-10T19:50:24.154Z,51.41
2019-05-10T19:52:52.872Z,52.12
2019-05-10T19:55:22.229Z,52.59
2019-05-10T19:57:54.925Z,52.50
2019-05-10T20:00:25.016Z,52.49
2019-05-10T20:02:54.312Z,52.26
2019-05-10T20:05:23.567Z,52.71
2019-05-10T20:07:52.876Z,53.17
2019-05-10T20:10:22.139Z,53.89
2019-05-10T20:12:51.439Z,53.41
2019-05-10T20:15:20.883Z,53.93
2019-05-10T20:17:50.309Z,54.19
2019-05-10T20:20:19.582Z,54.92
2019-05-10T20:22:48.889Z,56.13
2019-05-10T20:25:18.156Z,55.69
2019-05-10T20:27:47.458Z,56.46
2019-05-10T20:30:17.119Z,56.33
2019-05-10T20:32:46.426Z,56.35
2019-05-10T20:35:17.182Z,56.28
2019-05-10T20:38:00.733Z,56.15
2019-05-10T20:40:17.462Z,56.15
2019-05-10T20:42:46.746Z,56.65
2019-05-10T20:45:16.028Z,56.48
2019-05-10T20:47:45.327Z,57.14
2019-05-10T20:50:15.138Z,56.67
2019-05-10T20:52:44.440Z,57.07
2019-05-10T20:55:13.987Z,57.10
2019-05-10T20:57:43.358Z,57.81
2019-05-10T21:00:14.013Z,57.45
2019-05-10T21:02:43.359Z,57.69
2019-05-10T21:05:12.713Z,58.29
2019-05-10T21:07:42.014Z,59.10
2019-05-10T21:10:11.734Z,59.93
2019-05-10T21:12:41.073Z,60.90
2019-05-10T21:15:11.448Z,58.39
2019-05-10T21:17:40.764Z,58.21
2019-05-10T21:20:10.909Z,57.56
2019-05-10T21:22:40.273Z,57.78
2019-05-10T21:25:11.116Z,57.65
2019-05-10T21:27:40.426Z,57.64
2019-05-10T21:30:10.248Z,57.75
2019-05-10T21:32:39.698Z,57.80
2019-05-10T21:35:09.238Z,58.15
2019-05-10T21:37:38.588Z,58.98
2019-05-10T21:40:08.107Z,59.60
2019-05-10T21:42:37.395Z,59.26
2019-05-10T21:45:08.648Z,59.20
2019-05-10T21:47:50.697Z,58.79
2019-05-10T21:50:09.161Z,58.50
2019-05-10T21:52:39.639Z,58.11
2019-05-10T21:55:08.953Z,58.03
2019-05-10T21:57:38.314Z,58.00
2019-05-10T22:00:09.521Z,58.26
2019-05-10T22:02:39.867Z,58.19
2019-05-10T22:05:09.187Z,58.19
2019-05-10T22:07:38.543Z,58.11
2019-05-10T22:10:08.832Z,59.13
2019-05-10T22:12:38.143Z,59.06
2019-05-10T22:15:08.297Z,59.19
2019-05-10T22:17:38.041Z,58.69
2019-05-10T22:20:08.111Z,58.66
2019-05-10T22:22:37.420Z,58.39
2019-05-10T22:25:07.227Z,59.08
2019-05-10T22:27:36.532Z,59.08
2019-05-10T22:30:06.898Z,59.05
2019-05-10T22:32:36.220Z,58.74
2019-05-10T22:35:05.649Z,58.12
2019-05-10T22:37:35.058Z,58.85
2019-05-10T22:40:04.639Z,59.75
2019-05-10T22:42:33.984Z,60.77
2019-05-10T22:45:03.447Z,61.12
2019-05-10T22:47:32.799Z,61.51
2019-05-10T22:50:02.527Z,61.71
2019-05-10T22:52:31.892Z,61.99
2019-05-10T22:55:01.563Z,62.24
2019-05-10T22:57:30.966Z,62.99
2019-05-10T23:00:00.663Z,62.84
2019-05-10T23:02:29.983Z,62.63
2019-05-10T23:04:59.311Z,62.64
2019-05-10T23:07:28.635Z,62.40
2019-05-10T23:09:58.098Z,63.15
2019-05-10T23:12:27.438Z,63.13
2019-05-10T23:14:56.859Z,62.82
2019-05-10T23:17:26.162Z,63.01
2019-05-10T23:19:55.872Z,62.81
2019-05-10T23:22:36.641Z,63.84
2019-05-10T23:25:06.492Z,63.98
2019-05-10T23:27:35.810Z,64.35
2019-05-10T23:30:05.792Z,64.25
2019-05-10T23:32:35.244Z,64.25
2019-05-10T23:35:05.049Z,64.05
2019-05-10T23:37:34.498Z,64.19
2019-05-10T23:40:05.650Z,64.12
2019-05-10T23:42:34.992Z,63.91
2019-05-10T23:45:04.982Z,64.09
2019-05-10T23:47:34.589Z,63.90
2019-05-10T23:50:04.142Z,64.45
2019-05-10T23:52:33.437Z,64.58
2019-05-10T23:55:02.779Z,64.68
2019-05-10T23:57:32.171Z,64.81
